Time;durP1;ratioP1;P1;durP2;ratioP2;P2;SDS_P1;SDS_P2;PMS_P1;PMS_P2;Temp;Humidity;BMP_temperature;BMP_pressure;BME280_temperature;BME280_humidity;BME280_pressure;Samples;Min_cycle;Max_cycle;Signal;HPM_P1;HPM_P2
2021/09/11 00:01:10;;;;;;;3.78;2.90;;;;;;;;;;5029401;28;20029;-61
2021/09/11 00:03:36;;;;;;;3.50;2.75;;;;;;;;;;5029124;28;20060;-61
2021/09/11 00:06:01;;;;;;;3.30;2.42;;;;;;;;;;5029301;28;20037;-61
2021/09/11 00:08:27;;;;;;;3.70;3.30;;;;;;;;;;5029250;28;20373;-60
2021/09/11 00:10:52;;;;;;;3.88;2.65;;;;;;;;;;5029247;28;20033;-62
2021/09/11 00:13:18;;;;;;;4.28;3.78;;;;;;;;;;5027389;28;20105;-60
2021/09/11 00:15:43;;;;;;;4.85;3.20;;;;;;;;;;5029904;28;20617;-61
2021/09/11 00:18:09;;;;;;;4.47;2.70;;;;;;;;;;5031659;28;20849;-61
2021/09/11 00:20:34;;;;;;;3.60;2.67;;;;;;;;;;5031551;28;20121;-61
2021/09/11 00:23:01;;;;;;;4.35;3.10;;;;;;;;;;5032764;28;20033;-61
2021/09/11 00:25:28;;;;;;;4.35;3.45;;;;;;;;;;5032214;28;20045;-61
2021/09/11 00:27:54;;;;;;;3.30;2.85;;;;;;;;;;5031298;28;20025;-60
2021/09/11 00:30:19;;;;;;;5.45;3.03;;;;;;;;;;5032251;28;20103;-60
2021/09/11 00:32:45;;;;;;;2.88;2.53;;;;;;;;;;5031786;28;20033;-60
2021/09/11 00:35:14;;;;;;;4.65;3.03;;;;;;;;;;5032311;28;20048;-61
2021/09/11 00:37:41;;;;;;;3.50;3.17;;;;;;;;;;5030636;28;20095;-61
2021/09/11 00:40:08;;;;;;;4.45;3.33;;;;;;;;;;5030819;28;20035;-61
2021/09/11 00:42:33;;;;;;;4.32;3.22;;;;;;;;;;5031617;28;20032;-61
2021/09/11 00:44:58;;;;;;;5.60;3.15;;;;;;;;;;5030415;28;20379;-60
2021/09/11 00:47:24;;;;;;;3.97;3.30;;;;;;;;;;5023752;28;20474;-61
2021/09/11 00:49:50;;;;;;;4.30;2.95;;;;;;;;;;5032112;28;20037;-61
2021/09/11 00:52:16;;;;;;;3.47;2.95;;;;;;;;;;5031819;28;20033;-61
2021/09/11 00:54:41;;;;;;;3.80;3.30;;;;;;;;;;5031938;28;20216;-61
2021/09/11 00:57:07;;;;;;;4.88;3.55;;;;;;;;;;5031231;28;20033;-61
2021/09/11 00:59:33;;;;;;;3.92;3.25;;;;;;;;;;5031611;28;20132;-60
2021/09/11 01:01:58;;;;;;;3.47;3.13;;;;;;;;;;5031795;28;20391;-60
2021/09/11 01:04:27;;;;;;;4.25;3.85;;;;;;;;;;5031216;28;20747;-61
2021/09/11 01:06:53;;;;;;;5.65;3.67;;;;;;;;;;5030528;28;20037;-60
2021/09/11 01:09:18;;;;;;;3.60;2.95;;;;;;;;;;5028684;28;20025;-61
2021/09/11 01:11:44;;;;;;;3.42;2.65;;;;;;;;;;5030885;28;20063;-60
2021/09/11 01:14:09;;;;;;;4.78;4.13;;;;;;;;;;5030674;28;20180;-59
2021/09/11 01:16:35;;;;;;;4.10;3.10;;;;;;;;;;5031511;28;20035;-60
2021/09/11 01:19:00;;;;;;;4.80;3.65;;;;;;;;;;5031627;28;20017;-60
2021/09/11 01:21:26;;;;;;;4.95;3.45;;;;;;;;;;5031416;28;20032;-61
2021/09/11 01:23:51;;;;;;;5.25;3.72;;;;;;;;;;5030953;28;20077;-61
2021/09/11 01:26:17;;;;;;;4.60;3.47;;;;;;;;;;5030066;28;20645;-60
2021/09/11 01:28:42;;;;;;;4.70;3.80;;;;;;;;;;5031427;28;20102;-61
2021/09/11 01:31:08;;;;;;;5.18;3.72;;;;;;;;;;5030702;28;20037;-60
2021/09/11 01:33:33;;;;;;;4.10;3.42;;;;;;;;;;5030463;28;20033;-60
2021/09/11 01:35:59;;;;;;;4.22;3.83;;;;;;;;;;5031329;28;20039;-62
2021/09/11 01:38:24;;;;;;;6.40;3.92;;;;;;;;;;5030547;28;20056;-61
2021/09/11 01:40:50;;;;;;;4.18;3.22;;;;;;;;;;5030113;28;20112;-60
2021/09/11 01:43:15;;;;;;;4.18;3.45;;;;;;;;;;5028419;28;20718;-61
2021/09/11 01:45:41;;;;;;;3.92;3.53;;;;;;;;;;5029705;28;20048;-61
2021/09/11 01:48:06;;;;;;;4.00;3.38;;;;;;;;;;5031107;28;20029;-61
2021/09/11 01:50:32;;;;;;;4.47;3.75;;;;;;;;;;5030599;28;20037;-61
2021/09/11 01:52:57;;;;;;;4.95;3.50;;;;;;;;;;5026635;28;20022;-61
2021/09/11 01:55:23;;;;;;;4.93;3.88;;;;;;;;;;5029941;28;20041;-61
2021/09/11 01:57:48;;;;;;;4.20;2.88;;;;;;;;;;5030844;28;20025;-61
2021/09/11 02:00:16;;;;;;;6.63;3.92;;;;;;;;;;5031200;28;20538;-61
2021/09/11 02:02:42;;;;;;;3.70;3.25;;;;;;;;;;5030584;28;20501;-61
2021/09/11 02:05:09;;;;;;;4.40;3.90;;;;;;;;;;5030829;28;20091;-61
2021/09/11 02:07:35;;;;;;;4.57;3.70;;;;;;;;;;5029558;28;20095;-61
2021/09/11 02:10:03;;;;;;;4.00;3.38;;;;;;;;;;5013121;28;20041;-61
2021/09/11 02:12:28;;;;;;;3.47;3.13;;;;;;;;;;5028780;28;20033;-61
2021/09/11 02:14:54;;;;;;;3.90;3.13;;;;;;;;;;5029867;28;20113;-61
2021/09/11 02:17:19;;;;;;;5.18;3.00;;;;;;;;;;5029606;28;20128;-60
2021/09/11 02:19:46;;;;;;;4.75;3.80;;;;;;;;;;5030257;28;20455;-61
2021/09/11 02:22:11;;;;;;;9.27;3.35;;;;;;;;;;5030251;28;20084;-61
2021/09/11 02:24:38;;;;;;;9.77;3.55;;;;;;;;;;5030382;28;20026;-61
2021/09/11 02:27:04;;;;;;;3.50;2.92;;;;;;;;;;5029817;28;20037;-60
2021/09/11 02:29:30;;;;;;;6.50;3.63;;;;;;;;;;5028997;28;20041;-63
2021/09/11 02:31:56;;;;;;;8.02;4.10;;;;;;;;;;5030116;28;20029;-61
2021/09/11 02:34:21;;;;;;;3.65;2.97;;;;;;;;;;5027920;28;20041;-61
2021/09/11 02:36:47;;;;;;;4.63;3.80;;;;;;;;;;5029320;28;20021;-60
2021/09/11 02:39:13;;;;;;;3.55;3.08;;;;;;;;;;5029246;28;20133;-61
2021/09/11 02:41:38;;;;;;;5.28;3.53;;;;;;;;;;5028841;28;20040;-61
2021/09/11 02:44:04;;;;;;;3.88;3.28;;;;;;;;;;5017384;28;20041;-61
2021/09/11 02:46:30;;;;;;;9.68;4.10;;;;;;;;;;5025966;28;20061;-61
2021/09/11 02:48:57;;;;;;;4.32;3.75;;;;;;;;;;5028002;28;20449;-61
2021/09/11 02:51:23;;;;;;;8.50;3.72;;;;;;;;;;5029163;28;20411;-61
2021/09/11 02:53:49;;;;;;;4.80;3.63;;;;;;;;;;5027803;28;20116;-61
2021/09/11 02:56:14;;;;;;;4.30;3.90;;;;;;;;;;5024930;28;20117;-59
2021/09/11 02:58:40;;;;;;;4.05;3.58;;;;;;;;;;5028194;28;20470;-62
2021/09/11 03:01:05;;;;;;;4.55;3.20;;;;;;;;;;5028051;28;20030;-62
2021/09/11 03:03:30;;;;;;;5.60;4.20;;;;;;;;;;5026544;28;20517;-61
2021/09/11 03:05:56;;;;;;;5.00;4.00;;;;;;;;;;5025517;28;20025;-62
2021/09/11 03:08:21;;;;;;;6.15;3.60;;;;;;;;;;5027616;28;20029;-61
2021/09/11 03:10:47;;;;;;;6.47;3.53;;;;;;;;;;5028567;28;20037;-60
2021/09/11 03:13:13;;;;;;;3.67;3.10;;;;;;;;;;5029501;28;20467;-61
2021/09/11 03:15:39;;;;;;;4.43;3.63;;;;;;;;;;5029667;28;20037;-61
2021/09/11 03:18:04;;;;;;;5.07;3.55;;;;;;;;;;5026985;28;20439;-62
2021/09/11 03:20:30;;;;;;;3.85;3.38;;;;;;;;;;5025044;28;20030;-61
2021/09/11 03:22:55;;;;;;;5.15;3.22;;;;;;;;;;5028736;28;20104;-61
2021/09/11 03:25:21;;;;;;;5.63;3.95;;;;;;;;;;5028968;28;20483;-62
2021/09/11 03:27:46;;;;;;;4.10;3.67;;;;;;;;;;5029514;28;20382;-62
2021/09/11 03:30:11;;;;;;;3.80;3.40;;;;;;;;;;5028866;28;20112;-61
2021/09/11 03:32:37;;;;;;;4.15;3.03;;;;;;;;;;5029092;28;20033;-61
2021/09/11 03:35:02;;;;;;;3.97;3.35;;;;;;;;;;5029873;28;20053;-62
2021/09/11 03:37:28;;;;;;;4.78;3.95;;;;;;;;;;5021140;28;20073;-61
2021/09/11 03:39:53;;;;;;;3.78;3.15;;;;;;;;;;5028185;28;20429;-61
2021/09/11 03:42:19;;;;;;;3.30;3.00;;;;;;;;;;5028476;28;20029;-61
2021/09/11 03:44:44;;;;;;;5.63;3.90;;;;;;;;;;5028254;28;20049;-61
2021/09/11 03:47:09;;;;;;;3.55;2.70;;;;;;;;;;5028499;28;20152;-61
2021/09/11 03:49:35;;;;;;;4.40;3.38;;;;;;;;;;5030161;28;20037;-61
2021/09/11 03:52:00;;;;;;;5.15;3.58;;;;;;;;;;5033621;28;20029;-60
2021/09/11 03:54:26;;;;;;;4.32;3.25;;;;;;;;;;5033050;28;20044;-61
2021/09/11 03:56:51;;;;;;;5.00;3.88;;;;;;;;;;5030295;28;20037;-61
2021/09/11 03:59:17;;;;;;;4.15;3.03;;;;;;;;;;5028169;28;20043;-61
2021/09/11 04:01:42;;;;;;;3.60;3.20;;;;;;;;;;5032943;28;20477;-61
2021/09/11 04:04:07;;;;;;;4.32;3.50;;;;;;;;;;5031633;28;20025;-64
2021/09/11 04:06:33;;;;;;;4.28;3.10;;;;;;;;;;5032663;28;20118;-61
2021/09/11 04:08:58;;;;;;;4.85;3.92;;;;;;;;;;5032884;28;20056;-61
2021/09/11 04:11:23;;;;;;;4.50;3.78;;;;;;;;;;5032714;28;20363;-61
2021/09/11 04:13:49;;;;;;;4.45;3.63;;;;;;;;;;5031337;28;20048;-62
2021/09/11 04:16:14;;;;;;;3.90;3.50;;;;;;;;;;5030620;28;20037;-61
2021/09/11 04:18:40;;;;;;;4.70;2.97;;;;;;;;;;5030041;28;20045;-60
2021/09/11 04:21:05;;;;;;;4.43;3.80;;;;;;;;;;5032455;28;20402;-61
2021/09/11 04:23:31;;;;;;;3.80;3.22;;;;;;;;;;5030410;28;20087;-61
2021/09/11 04:25:56;;;;;;;3.67;2.92;;;;;;;;;;5030733;28;20087;-61
2021/09/11 04:28:22;;;;;;;4.45;3.28;;;;;;;;;;5030921;28;20052;-61
2021/09/11 04:30:47;;;;;;;3.58;2.83;;;;;;;;;;5030438;28;20513;-61
2021/09/11 04:33:12;;;;;;;3.80;3.15;;;;;;;;;;5031655;28;20037;-61
2021/09/11 04:35:38;;;;;;;4.97;3.92;;;;;;;;;;5032315;28;20017;-61
2021/09/11 04:38:03;;;;;;;4.53;3.28;;;;;;;;;;5031762;28;20025;-61
2021/09/11 04:40:29;;;;;;;4.43;3.35;;;;;;;;;;5032037;28;20116;-62
2021/09/11 04:42:55;;;;;;;3.53;3.00;;;;;;;;;;5031336;28;20033;-60
2021/09/11 04:45:21;;;;;;;3.85;2.55;;;;;;;;;;5032099;28;20034;-60
2021/09/11 04:47:46;;;;;;;4.90;3.65;;;;;;;;;;5029011;28;20034;-62
2021/09/11 04:50:12;;;;;;;3.55;3.00;;;;;;;;;;5031430;28;20124;-61
2021/09/11 04:52:37;;;;;;;3.15;2.63;;;;;;;;;;5031761;28;20028;-61
2021/09/11 04:55:03;;;;;;;3.85;2.97;;;;;;;;;;5032299;28;20025;-60
2021/09/11 04:57:29;;;;;;;3.05;2.60;;;;;;;;;;5028690;28;20033;-61
2021/09/11 04:59:54;;;;;;;3.90;3.15;;;;;;;;;;5026624;28;20036;-61
2021/09/11 05:02:19;;;;;;;3.30;2.15;;;;;;;;;;5028759;28;20573;-60
2021/09/11 05:04:45;;;;;;;7.03;3.67;;;;;;;;;;5031712;28;20025;-61
2021/09/11 05:07:10;;;;;;;3.83;2.90;;;;;;;;;;5031673;28;20040;-60
2021/09/11 05:09:36;;;;;;;4.15;2.97;;;;;;;;;;5030986;28;20467;-61
2021/09/11 05:12:04;;;;;;;3.55;2.75;;;;;;;;;;5031103;28;20037;-61
2021/09/11 05:14:31;;;;;;;3.45;2.55;;;;;;;;;;5030126;28;20501;-60
2021/09/11 05:16:57;;;;;;;4.90;3.63;;;;;;;;;;5031407;28;20631;-60
2021/09/11 05:19:22;;;;;;;8.50;3.63;;;;;;;;;;5031483;28;20037;-60
2021/09/11 05:21:48;;;;;;;4.38;3.33;;;;;;;;;;5031499;28;20458;-60
2021/09/11 05:24:15;;;;;;;3.35;2.88;;;;;;;;;;5030299;28;20029;-60
2021/09/11 05:26:42;;;;;;;3.17;2.85;;;;;;;;;;5031375;28;20036;-60
2021/09/11 05:29:07;;;;;;;3.20;2.70;;;;;;;;;;5031133;28;20029;-60
2021/09/11 05:31:32;;;;;;;3.58;3.00;;;;;;;;;;5009432;28;20167;-60
2021/09/11 05:33:58;;;;;;;3.38;2.65;;;;;;;;;;5029138;28;20132;-60
2021/09/11 05:36:23;;;;;;;3.72;3.33;;;;;;;;;;5029203;28;20176;-60
2021/09/11 05:38:49;;;;;;;3.55;3.20;;;;;;;;;;5029982;28;20038;-60
2021/09/11 05:41:14;;;;;;;6.55;2.85;;;;;;;;;;5028671;28;20436;-60
2021/09/11 05:43:39;;;;;;;3.10;2.40;;;;;;;;;;5027611;28;20030;-60
2021/09/11 05:46:05;;;;;;;4.93;3.40;;;;;;;;;;5026592;28;20043;-60
2021/09/11 05:48:30;;;;;;;4.43;3.88;;;;;;;;;;5027298;28;20048;-60
2021/09/11 05:50:55;;;;;;;3.50;2.83;;;;;;;;;;5028110;28;20336;-60
2021/09/11 05:53:21;;;;;;;4.30;3.45;;;;;;;;;;5029956;28;20037;-60
2021/09/11 05:55:46;;;;;;;3.53;3.05;;;;;;;;;;5031044;28;20107;-60
2021/09/11 05:58:12;;;;;;;4.00;3.15;;;;;;;;;;5029957;28;20033;-60
2021/09/11 06:00:37;;;;;;;4.22;3.50;;;;;;;;;;5030609;28;20455;-60
2021/09/11 06:03:03;;;;;;;4.20;3.42;;;;;;;;;;5029865;28;20688;-60
2021/09/11 06:05:28;;;;;;;4.40;3.58;;;;;;;;;;5031033;28;20037;-60
2021/09/11 06:07:54;;;;;;;4.15;3.17;;;;;;;;;;5030293;28;20039;-60
2021/09/11 06:10:19;;;;;;;4.53;3.53;;;;;;;;;;5028690;28;20029;-61
2021/09/11 06:12:44;;;;;;;4.50;3.22;;;;;;;;;;5030500;28;20083;-61
2021/09/11 06:15:12;;;;;;;5.32;3.28;;;;;;;;;;5029666;28;20071;-61
2021/09/11 06:17:37;;;;;;;4.43;3.60;;;;;;;;;;5029669;28;20033;-61
2021/09/11 06:20:04;;;;;;;6.32;4.47;;;;;;;;;;5028485;28;20040;-61
2021/09/11 06:22:29;;;;;;;4.43;3.47;;;;;;;;;;5028875;28;20377;-60
2021/09/11 06:24:55;;;;;;;3.75;3.05;;;;;;;;;;5030457;28;20013;-61
2021/09/11 06:27:20;;;;;;;3.63;3.08;;;;;;;;;;5027680;28;20459;-61
2021/09/11 06:29:45;;;;;;;4.57;3.35;;;;;;;;;;5026957;28;20514;-60
2021/09/11 06:32:11;;;;;;;5.57;4.28;;;;;;;;;;5027113;28;20049;-60
2021/09/11 06:34:36;;;;;;;5.78;3.80;;;;;;;;;;5027783;28;20113;-60
2021/09/11 06:37:02;;;;;;;4.47;3.90;;;;;;;;;;5028911;28;20033;-60
2021/09/11 06:39:27;;;;;;;5.32;3.38;;;;;;;;;;5021465;28;20088;-60
2021/09/11 06:41:53;;;;;;;3.97;3.08;;;;;;;;;;5030150;28;20664;-61
2021/09/11 06:44:19;;;;;;;4.22;3.10;;;;;;;;;;5026110;28;20046;-61
2021/09/11 06:46:44;;;;;;;5.07;3.53;;;;;;;;;;5026808;28;20035;-61
2021/09/11 06:49:09;;;;;;;3.88;3.33;;;;;;;;;;5028748;28;20039;-61
2021/09/11 06:51:35;;;;;;;3.75;3.25;;;;;;;;;;5029580;28;20460;-60
2021/09/11 06:54:00;;;;;;;4.60;3.60;;;;;;;;;;5029891;28;20083;-61
2021/09/11 06:56:26;;;;;;;4.15;2.85;;;;;;;;;;5027657;28;20095;-60
2021/09/11 06:58:51;;;;;;;4.85;3.72;;;;;;;;;;5029381;28;20033;-60
2021/09/11 07:01:16;;;;;;;3.80;3.00;;;;;;;;;;5029884;28;20036;-60
2021/09/11 07:03:45;;;;;;;3.58;3.13;;;;;;;;;;5028703;28;20466;-60
2021/09/11 07:06:10;;;;;;;4.10;3.50;;;;;;;;;;5026328;28;20041;-60
2021/09/11 07:08:36;;;;;;;5.75;3.83;;;;;;;;;;5027495;28;20033;-60
2021/09/11 07:11:01;;;;;;;6.45;3.50;;;;;;;;;;5029108;28;20033;-60
2021/09/11 07:13:27;;;;;;;4.07;3.65;;;;;;;;;;5028526;28;20056;-60
2021/09/11 07:15:52;;;;;;;3.20;2.78;;;;;;;;;;5029483;28;20069;-60
2021/09/11 07:18:18;;;;;;;4.18;3.15;;;;;;;;;;5029495;28;20539;-60
2021/09/11 07:20:43;;;;;;;3.72;3.08;;;;;;;;;;5028515;28;20037;-60
2021/09/11 07:23:09;;;;;;;4.43;3.53;;;;;;;;;;5028412;28;20495;-60
2021/09/11 07:25:34;;;;;;;4.40;3.35;;;;;;;;;;5032610;28;20033;-60
2021/09/11 07:28:00;;;;;;;4.13;3.47;;;;;;;;;;5033330;28;20044;-60
2021/09/11 07:30:25;;;;;;;4.05;3.60;;;;;;;;;;5033950;28;20387;-59
2021/09/11 07:32:51;;;;;;;3.63;2.67;;;;;;;;;;5033608;28;20254;-60
2021/09/11 07:35:16;;;;;;;4.30;3.47;;;;;;;;;;5033594;28;20029;-59
2021/09/11 07:37:42;;;;;;;4.93;3.03;;;;;;;;;;5033528;28;20362;-59
2021/09/11 07:40:08;;;;;;;5.63;3.38;;;;;;;;;;5033347;28;20099;-59
2021/09/11 07:42:34;;;;;;;7.32;2.78;;;;;;;;;;5030749;28;20086;-60
2021/09/11 07:44:59;;;;;;;4.35;3.78;;;;;;;;;;5033014;28;20029;-59
2021/09/11 07:47:25;;;;;;;4.25;3.47;;;;;;;;;;5030237;28;20037;-60
2021/09/11 07:49:50;;;;;;;4.13;3.55;;;;;;;;;;5033465;28;20040;-59
2021/09/11 07:52:16;;;;;;;3.20;2.47;;;;;;;;;;5031349;28;20045;-59
2021/09/11 07:54:41;;;;;;;3.22;2.55;;;;;;;;;;5029052;28;20040;-60
2021/09/11 07:57:07;;;;;;;5.22;4.00;;;;;;;;;;5032852;28;20367;-59
2021/09/11 07:59:32;;;;;;;3.83;3.13;;;;;;;;;;5031748;28;20116;-59
2021/09/11 08:01:58;;;;;;;2.95;2.08;;;;;;;;;;5028256;28;20034;-60
2021/09/11 08:04:23;;;;;;;4.35;3.13;;;;;;;;;;5029611;28;20548;-59
2021/09/11 08:06:48;;;;;;;9.60;3.22;;;;;;;;;;5032844;28;20378;-60
2021/09/11 08:09:14;;;;;;;3.30;2.63;;;;;;;;;;5032285;28;20052;-59
2021/09/11 08:11:39;;;;;;;3.42;2.90;;;;;;;;;;5032637;28;20037;-59
2021/09/11 08:14:06;;;;;;;3.97;2.63;;;;;;;;;;5030227;28;20448;-60
2021/09/11 08:16:32;;;;;;;3.72;2.20;;;;;;;;;;5028221;28;20091;-61
2021/09/11 08:18:58;;;;;;;4.82;3.63;;;;;;;;;;5030110;28;20026;-61
2021/09/11 08:21:23;;;;;;;4.10;3.35;;;;;;;;;;5014718;28;20128;-59
2021/09/11 08:23:49;;;;;;;3.75;3.15;;;;;;;;;;5030624;28;20056;-60
2021/09/11 08:26:15;;;;;;;5.25;3.65;;;;;;;;;;5031378;28;20041;-60
2021/09/11 08:28:40;;;;;;;4.28;3.13;;;;;;;;;;5022170;28;20025;-60
2021/09/11 08:31:06;;;;;;;4.72;3.60;;;;;;;;;;5028451;28;20036;-61
2021/09/11 08:33:31;;;;;;;4.32;3.30;;;;;;;;;;5029841;28;20029;-61
2021/09/11 08:35:56;;;;;;;3.22;2.80;;;;;;;;;;5030491;28;20414;-60
2021/09/11 08:38:22;;;;;;;4.43;4.00;;;;;;;;;;5028209;28;20401;-60
2021/09/11 08:40:48;;;;;;;4.15;3.75;;;;;;;;;;5028953;28;20040;-58
2021/09/11 08:43:18;;;;;;;5.20;4.70;;;;;;;;;;5030684;28;20045;-58
2021/09/11 08:45:44;;;;;;;3.85;3.47;;;;;;;;;;5030710;28;20029;-60
2021/09/11 08:48:09;;;;;;;4.28;3.88;;;;;;;;;;5029153;28;20029;-61
2021/09/11 08:50:35;;;;;;;5.40;4.90;;;;;;;;;;5030966;28;20029;-60
2021/09/11 08:53:00;;;;;;;4.30;3.90;;;;;;;;;;5031953;28;20343;-61
2021/09/11 08:55:26;;;;;;;6.03;5.00;;;;;;;;;;5029901;28;20025;-60
2021/09/11 08:58:00;;;;;;;4.60;4.20;;;;;;;;;;5029862;28;20419;-61
2021/09/11 09:00:37;;;;;;;5.97;4.20;;;;;;;;;;5030322;28;20473;-61
2021/09/11 09:03:22;;;;;;;4.65;4.25;;;;;;;;;;5026993;28;20061;-60
2021/09/11 09:05:47;;;;;;;5.13;4.47;;;;;;;;;;5029896;28;20113;-60
2021/09/11 09:08:13;;;;;;;4.15;3.65;;;;;;;;;;5030301;28;20124;-59
2021/09/11 09:10:38;;;;;;;3.95;3.55;;;;;;;;;;5031877;28;20465;-58
2021/09/11 09:13:03;;;;;;;3.92;3.45;;;;;;;;;;5028239;28;20518;-59
2021/09/11 09:15:31;;;;;;;4.68;3.88;;;;;;;;;;5030698;28;20076;-60
2021/09/11 09:17:56;;;;;;;3.83;3.50;;;;;;;;;;5029381;28;20025;-60
2021/09/11 09:20:25;;;;;;;3.97;3.58;;;;;;;;;;5031144;28;20041;-60
2021/09/11 09:23:07;;;;;;;3.55;2.97;;;;;;;;;;5031009;28;20037;-59
2021/09/11 09:25:37;;;;;;;4.93;3.10;;;;;;;;;;5023375;28;20052;-60
2021/09/11 09:28:08;;;;;;;3.00;2.70;;;;;;;;;;5031289;28;20033;-61
2021/09/11 09:30:47;;;;;;;3.75;3.40;;;;;;;;;;5031264;28;20044;-60
2021/09/11 09:33:22;;;;;;;4.22;3.47;;;;;;;;;;5030968;28;20041;-60
2021/09/11 09:35:49;;;;;;;5.45;3.90;;;;;;;;;;5030979;28;20029;-61
2021/09/11 09:38:15;;;;;;;4.03;3.63;;;;;;;;;;5030196;28;20111;-61
2021/09/11 09:40:48;;;;;;;3.63;3.33;;;;;;;;;;5029372;28;20091;-60
2021/09/11 09:43:29;;;;;;;3.33;2.85;;;;;;;;;;5027668;28;20114;-60
2021/09/11 09:46:18;;;;;;;2.90;2.47;;;;;;;;;;5021711;28;20041;-60
2021/09/11 09:48:45;;;;;;;3.10;2.53;;;;;;;;;;5029118;28;20030;-60
2021/09/11 09:51:14;;;;;;;3.38;2.03;;;;;;;;;;5027842;28;20021;-61
2021/09/11 09:53:41;;;;;;;2.70;2.17;;;;;;;;;;5029997;28;20037;-61
2021/09/11 09:56:07;;;;;;;2.53;2.17;;;;;;;;;;5030261;28;20060;-61
2021/09/11 09:58:34;;;;;;;3.20;2.22;;;;;;;;;;5027050;28;20045;-61
2021/09/11 10:01:01;;;;;;;2.83;2.30;;;;;;;;;;5027802;28;20087;-60
2021/09/11 10:03:26;;;;;;;4.25;2.58;;;;;;;;;;5027405;28;20033;-61
2021/09/11 10:06:03;;;;;;;3.63;2.70;;;;;;;;;;5028046;28;20410;-60
2021/09/11 10:08:31;;;;;;;4.00;3.70;;;;;;;;;;5026514;28;20029;-60
2021/09/11 10:10:57;;;;;;;4.22;2.88;;;;;;;;;;5029534;28;20171;-59
2021/09/11 10:13:23;;;;;;;3.42;3.10;;;;;;;;;;5028303;28;20112;-60
2021/09/11 10:15:55;;;;;;;3.47;3.10;;;;;;;;;;5027823;28;20033;-60
2021/09/11 10:18:29;;;;;;;4.35;3.05;;;;;;;;;;5028666;28;20029;-61
2021/09/11 10:21:27;;;;;;;3.20;2.63;;;;;;;;;;5029845;28;20516;-60
2021/09/11 10:23:56;;;;;;;3.13;2.55;;;;;;;;;;5028870;28;20072;-60
2021/09/11 10:26:46;;;;;;;6.22;3.00;;;;;;;;;;5027438;28;20036;-60
2021/09/11 10:29:30;;;;;;;2.95;2.55;;;;;;;;;;5026067;28;20156;-60
2021/09/11 10:32:16;;;;;;;4.13;3.05;;;;;;;;;;5028966;28;20113;-60
2021/09/11 10:35:01;;;;;;;2.80;2.38;;;;;;;;;;5028946;28;20080;-59
2021/09/11 10:37:29;;;;;;;3.38;2.22;;;;;;;;;;5028880;28;20444;-60
2021/09/11 10:40:25;;;;;;;9.05;3.08;;;;;;;;;;5029462;28;20033;-59
2021/09/11 10:43:28;;;;;;;2.85;2.13;;;;;;;;;;5028808;28;20052;-58
2021/09/11 10:45:54;;;;;;;2.45;1.77;;;;;;;;;;5027229;28;20041;-60
2021/09/11 10:48:33;;;;;;;2.50;2.00;;;;;;;;;;5029364;28;20033;-59
2021/09/11 10:51:20;;;;;;;3.17;2.28;;;;;;;;;;5029419;28;20025;-60
2021/09/11 10:54:26;;;;;;;3.30;2.50;;;;;;;;;;5027902;28;20132;-60
2021/09/11 10:57:02;;;;;;;3.65;2.42;;;;;;;;;;5027112;28;20094;-60
2021/09/11 10:59:32;;;;;;;3.72;2.55;;;;;;;;;;5023836;28;20033;-60
2021/09/11 11:02:03;;;;;;;2.85;2.38;;;;;;;;;;5019680;28;20049;-60
2021/09/11 11:04:31;;;;;;;4.32;2.75;;;;;;;;;;5020244;28;20183;-60
2021/09/11 11:07:00;;;;;;;3.17;2.30;;;;;;;;;;5022909;28;20048;-60
2021/09/11 11:09:26;;;;;;;3.28;2.40;;;;;;;;;;5020631;28;20033;-61
2021/09/11 11:11:54;;;;;;;3.00;1.95;;;;;;;;;;5022210;28;20560;-60
2021/09/11 11:14:21;;;;;;;3.25;2.55;;;;;;;;;;5023172;28;20033;-59
2021/09/11 11:16:54;;;;;;;2.58;1.85;;;;;;;;;;5022504;28;20367;-60
2021/09/11 11:19:31;;;;;;;4.43;2.58;;;;;;;;;;5022157;28;20041;-60
2021/09/11 11:22:07;;;;;;;3.40;2.17;;;;;;;;;;5021915;28;20591;-59
2021/09/11 11:24:35;;;;;;;3.03;2.10;;;;;;;;;;5022349;28;20033;-60
2021/09/11 11:27:09;;;;;;;2.53;1.73;;;;;;;;;;5023408;28;20048;-60
2021/09/11 11:29:35;;;;;;;3.45;2.42;;;;;;;;;;5020395;28;20037;-60
2021/09/11 11:32:03;;;;;;;2.88;2.20;;;;;;;;;;5021014;28;20041;-60
2021/09/11 11:34:29;;;;;;;4.50;2.50;;;;;;;;;;5021060;28;20116;-59
2021/09/11 11:37:00;;;;;;;3.40;2.55;;;;;;;;;;5022400;28;20117;-60
2021/09/11 11:39:33;;;;;;;3.35;2.63;;;;;;;;;;5017522;28;20029;-60
2021/09/11 11:42:02;;;;;;;3.00;2.30;;;;;;;;;;5020015;28;20617;-61
2021/09/11 11:44:29;;;;;;;3.65;2.30;;;;;;;;;;5023166;28;20030;-59
2021/09/11 11:47:41;;;;;;;3.85;2.38;;;;;;;;;;5023848;28;20164;-60
2021/09/11 11:50:30;;;;;;;2.70;1.88;;;;;;;;;;5016073;28;20037;-60
2021/09/11 11:53:01;;;;;;;4.47;2.43;;;;;;;;;;5024339;28;20072;-63
2021/09/11 11:55:30;;;;;;;2.78;2.00;;;;;;;;;;5024666;28;20104;-66
2021/09/11 11:58:13;;;;;;;2.90;2.17;;;;;;;;;;5025393;28;20520;-64
2021/09/11 12:00:46;;;;;;;2.80;1.90;;;;;;;;;;5024577;28;20033;-67
2021/09/11 12:03:30;;;;;;;2.40;1.70;;;;;;;;;;5021697;28;20041;-64
2021/09/11 12:05:55;;;;;;;3.05;2.00;;;;;;;;;;5025086;28;20538;-63
2021/09/11 12:08:21;;;;;;;3.72;2.53;;;;;;;;;;5024248;28;20123;-65
2021/09/11 12:10:51;;;;;;;2.92;1.85;;;;;;;;;;5026525;28;20045;-63
2021/09/11 12:13:17;;;;;;;2.55;2.15;;;;;;;;;;5029322;28;20063;-62
2021/09/11 12:15:43;;;;;;;2.85;1.98;;;;;;;;;;5019795;28;20511;-63
2021/09/11 12:18:10;;;;;;;4.05;2.85;;;;;;;;;;5029226;28;20477;-64
2021/09/11 12:20:54;;;;;;;2.92;2.60;;;;;;;;;;5027198;28;21165;-62
2021/09/11 12:23:29;;;;;;;3.95;2.58;;;;;;;;;;5028019;28;20044;-62
2021/09/11 12:26:02;;;;;;;5.70;2.45;;;;;;;;;;5029196;28;20096;-63
2021/09/11 12:28:54;;;;;;;2.90;2.55;;;;;;;;;;5023386;28;20048;-63
2021/09/11 12:31:19;;;;;;;4.97;2.67;;;;;;;;;;5027740;28;20060;-63
2021/09/11 12:33:46;;;;;;;4.32;2.72;;;;;;;;;;5026155;28;20415;-61
2021/09/11 12:36:22;;;;;;;6.60;3.05;;;;;;;;;;5030935;28;20171;-60
2021/09/11 12:38:48;;;;;;;3.00;2.35;;;;;;;;;;5030214;28;20514;-61
2021/09/11 12:41:14;;;;;;;3.50;2.40;;;;;;;;;;5031725;28;20156;-61
2021/09/11 12:43:40;;;;;;;4.85;3.00;;;;;;;;;;5027400;28;20567;-61
2021/09/11 12:46:05;;;;;;;3.28;2.85;;;;;;;;;;5028462;28;20041;-61
2021/09/11 12:48:31;;;;;;;3.33;2.75;;;;;;;;;;5029940;28;20573;-61
2021/09/11 12:50:56;;;;;;;5.90;3.00;;;;;;;;;;5029446;28;20040;-59
2021/09/11 12:53:21;;;;;;;5.35;3.60;;;;;;;;;;5029640;28;20378;-60
2021/09/11 12:55:47;;;;;;;4.00;3.15;;;;;;;;;;5030982;28;20029;-61
2021/09/11 12:58:12;;;;;;;3.60;2.97;;;;;;;;;;5031356;28;20334;-60
2021/09/11 13:00:38;;;;;;;3.65;2.97;;;;;;;;;;5031316;28;20073;-60
2021/09/11 13:03:03;;;;;;;3.50;3.10;;;;;;;;;;5029705;28;20049;-60
2021/09/11 13:05:29;;;;;;;3.80;3.15;;;;;;;;;;5030994;28;20037;-59
2021/09/11 13:07:55;;;;;;;5.00;3.13;;;;;;;;;;5031391;28;20358;-59
2021/09/11 13:10:20;;;;;;;3.95;3.55;;;;;;;;;;5031096;28;20414;-59
2021/09/11 13:12:46;;;;;;;5.13;4.25;;;;;;;;;;5028369;28;20049;-59
2021/09/11 13:15:11;;;;;;;4.45;4.05;;;;;;;;;;5026331;28;20042;-60
2021/09/11 13:17:36;;;;;;;4.40;3.95;;;;;;;;;;5029460;28;20033;-58
2021/09/11 13:20:03;;;;;;;4.63;3.50;;;;;;;;;;5029650;28;20041;-59
2021/09/11 13:22:29;;;;;;;4.38;3.90;;;;;;;;;;5027949;28;20064;-58
2021/09/11 13:24:54;;;;;;;3.67;3.38;;;;;;;;;;5029258;28;20022;-58
2021/09/11 13:27:20;;;;;;;4.05;3.65;;;;;;;;;;5030408;28;20363;-58
2021/09/11 13:29:45;;;;;;;4.53;4.13;;;;;;;;;;5028574;28;20030;-58
2021/09/11 13:32:10;;;;;;;3.97;3.58;;;;;;;;;;5030251;28;20539;-57
2021/09/11 13:34:36;;;;;;;3.95;3.55;;;;;;;;;;5029012;28;20033;-58
2021/09/11 13:37:01;;;;;;;3.90;3.50;;;;;;;;;;5030639;28;20029;-58
2021/09/11 13:39:27;;;;;;;4.68;4.15;;;;;;;;;;5029695;28;20033;-58
2021/09/11 13:41:52;;;;;;;3.72;3.17;;;;;;;;;;5030495;28;20116;-58
2021/09/11 13:44:18;;;;;;;3.55;3.10;;;;;;;;;;5026392;28;20053;-58
2021/09/11 13:46:43;;;;;;;3.28;2.60;;;;;;;;;;5028185;28;20033;-58
2021/09/11 13:49:09;;;;;;;2.75;2.15;;;;;;;;;;5029542;28;20072;-58
2021/09/11 13:51:34;;;;;;;4.05;3.33;;;;;;;;;;5029705;28;20041;-58
2021/09/11 13:54:00;;;;;;;3.80;2.65;;;;;;;;;;5029846;28;20084;-58
2021/09/11 13:56:26;;;;;;;4.10;3.08;;;;;;;;;;5027950;28;20499;-58
2021/09/11 13:58:52;;;;;;;3.45;3.08;;;;;;;;;;5027985;28;20120;-59
2021/09/11 14:01:18;;;;;;;5.35;3.03;;;;;;;;;;5029707;28;20098;-59
2021/09/11 14:03:43;;;;;;;4.40;3.17;;;;;;;;;;5027955;28;20137;-59
2021/09/11 14:06:09;;;;;;;4.20;3.20;;;;;;;;;;5029092;28;20040;-59
2021/09/11 14:08:36;;;;;;;3.53;2.58;;;;;;;;;;5026109;28;20599;-59
2021/09/11 14:11:02;;;;;;;4.93;3.50;;;;;;;;;;5028283;28;20061;-58
2021/09/11 14:13:28;;;;;;;3.38;3.05;;;;;;;;;;5028058;28;20037;-58
2021/09/11 14:15:54;;;;;;;5.70;2.95;;;;;;;;;;5029349;28;20034;-59
2021/09/11 14:18:19;;;;;;;4.20;2.78;;;;;;;;;;5029917;28;20034;-59
2021/09/11 14:20:45;;;;;;;3.92;3.45;;;;;;;;;;5029655;28;20120;-59
2021/09/11 14:23:10;;;;;;;3.63;3.03;;;;;;;;;;5029773;28;20044;-59
2021/09/11 14:25:37;;;;;;;4.40;3.33;;;;;;;;;;5029568;28;20090;-59
2021/09/11 14:28:03;;;;;;;4.05;2.95;;;;;;;;;;5028429;28;20472;-59
2021/09/11 14:30:28;;;;;;;3.50;2.50;;;;;;;;;;5029407;28;20026;-61
2021/09/11 14:32:54;;;;;;;5.20;3.00;;;;;;;;;;5028849;28;20156;-60
2021/09/11 14:35:19;;;;;;;3.90;2.83;;;;;;;;;;5030088;28;20498;-59
2021/09/11 14:37:45;;;;;;;2.97;2.60;;;;;;;;;;5029596;28;20119;-59
2021/09/11 14:40:11;;;;;;;6.93;2.40;;;;;;;;;;5029184;28;20481;-59
2021/09/11 14:42:37;;;;;;;4.50;3.03;;;;;;;;;;5028347;28;20029;-59
2021/09/11 14:45:03;;;;;;;4.43;3.05;;;;;;;;;;5027208;28;20447;-60